sensor_id;sensor_type;location;lat;lon;timestamp;pressure;altitude;pressure_sealevel;temperature;humidity
64841;BME280;51307;52.162;7.560;2023-03-21T00:02:05;101123.97;;;9.82;59.96
64841;BME280;51307;52.162;7.560;2023-03-21T00:04:31;101129.25;;;9.91;59.86
64841;BME280;51307;52.162;7.560;2023-03-21T00:06:56;101119.19;;;9.48;61.12
64841;BME280;51307;52.162;7.560;2023-03-21T00:09:22;101120.72;;;9.88;60.24
64841;BME280;51307;52.162;7.560;2023-03-21T00:11:48;101121.44;;;9.80;60.33
64841;BME280;51307;52.162;7.560;2023-03-21T00:14:13;101118.63;;;9.82;60.22
64841;BME280;51307;52.162;7.560;2023-03-21T00:16:43;101120.47;;;9.81;60.28
64841;BME280;51307;52.162;7.560;2023-03-21T00:19:10;101112.28;;;9.83;60.08
64841;BME280;51307;52.162;7.560;2023-03-21T00:21:37;101111.47;;;9.72;60.36
64841;BME280;51307;52.162;7.560;2023-03-21T00:24:03;101110.81;;;9.60;61.11
64841;BME280;51307;52.162;7.560;2023-03-21T00:26:30;101106.41;;;9.79;60.42
64841;BME280;51307;52.162;7.560;2023-03-21T00:28:56;101111.00;;;9.87;60.05
64841;BME280;51307;52.162;7.560;2023-03-21T00:31:22;101109.47;;;9.84;60.24
64841;BME280;51307;52.162;7.560;2023-03-21T00:33:48;101108.72;;;9.64;60.65
64841;BME280;51307;52.162;7.560;2023-03-21T00:36:14;101103.00;;;9.87;60.15
64841;BME280;51307;52.162;7.560;2023-03-21T00:38:40;101110.13;;;9.96;60.09
64841;BME280;51307;52.162;7.560;2023-03-21T00:41:08;101103.44;;;9.82;60.38
64841;BME280;51307;52.162;7.560;2023-03-21T00:43:34;101094.56;;;9.82;60.31
64841;BME280;51307;52.162;7.560;2023-03-21T00:46:00;101099.06;;;10.09;59.72
64841;BME280;51307;52.162;7.560;2023-03-21T00:48:26;101100.91;;;9.81;60.56
64841;BME280;51307;52.162;7.560;2023-03-21T00:50:54;101101.78;;;9.99;60.03
64841;BME280;51307;52.162;7.560;2023-03-21T00:53:22;101091.84;;;9.91;60.37
64841;BME280;51307;52.162;7.560;2023-03-21T00:55:48;101089.31;;;9.90;60.25
64841;BME280;51307;52.162;7.560;2023-03-21T00:58:15;101088.50;;;9.89;60.47
64841;BME280;51307;52.162;7.560;2023-03-21T01:00:40;101086.38;;;9.93;60.38
64841;BME280;51307;52.162;7.560;2023-03-21T01:03:10;101082.50;;;9.77;60.78
64841;BME280;51307;52.162;7.560;2023-03-21T01:05:39;101086.56;;;9.82;60.71
64841;BME280;51307;52.162;7.560;2023-03-21T01:08:24;101085.75;;;9.99;60.31
64841;BME280;51307;52.162;7.560;2023-03-21T01:10:51;101079.81;;;9.77;61.10
64841;BME280;51307;52.162;7.560;2023-03-21T01:13:19;101075.81;;;9.91;60.90
64841;BME280;51307;52.162;7.560;2023-03-21T01:15:48;101075.53;;;9.95;60.59
64841;BME280;51307;52.162;7.560;2023-03-21T01:18:15;101072.31;;;9.91;60.77
64841;BME280;51307;52.162;7.560;2023-03-21T01:20:43;101070.66;;;9.80;61.37
64841;BME280;51307;52.162;7.560;2023-03-21T01:23:10;101072.13;;;9.74;61.43
64841;BME280;51307;52.162;7.560;2023-03-21T01:25:36;101070.22;;;9.85;61.19
64841;BME280;51307;52.162;7.560;2023-03-21T01:28:02;101065.00;;;9.93;61.09
64841;BME280;51307;52.162;7.560;2023-03-21T01:30:29;101070.84;;;9.97;61.10
64841;BME280;51307;52.162;7.560;2023-03-21T01:32:55;101062.50;;;9.82;61.53
64841;BME280;51307;52.162;7.560;2023-03-21T01:35:21;101061.31;;;9.94;61.30
64841;BME280;51307;52.162;7.560;2023-03-21T01:37:47;101059.91;;;9.90;61.59
64841;BME280;51307;52.162;7.560;2023-03-21T01:40:21;101058.34;;;9.97;61.43
64841;BME280;51307;52.162;7.560;2023-03-21T01:42:47;101051.22;;;9.88;61.64
64841;BME280;51307;52.162;7.560;2023-03-21T01:48:18;101049.22;;;9.90;61.76
64841;BME280;51307;52.162;7.560;2023-03-21T01:50:44;101045.50;;;10.01;61.27
64841;BME280;51307;52.162;7.560;2023-03-21T01:53:10;101052.84;;;9.99;61.61
64841;BME280;51307;52.162;7.560;2023-03-21T01:55:37;101044.44;;;10.12;61.19
64841;BME280;51307;52.162;7.560;2023-03-21T01:58:05;101051.00;;;9.99;61.75
64841;BME280;51307;52.162;7.560;2023-03-21T02:00:33;101041.84;;;10.02;61.75
64841;BME280;51307;52.162;7.560;2023-03-21T02:03:00;101047.81;;;10.14;61.32
64841;BME280;51307;52.162;7.560;2023-03-21T02:08:10;101042.91;;;9.91;62.21
64841;BME280;51307;52.162;7.560;2023-03-21T02:10:38;101038.34;;;10.01;61.88
64841;BME280;51307;52.162;7.560;2023-03-21T02:13:05;101038.84;;;9.87;62.23
64841;BME280;51307;52.162;7.560;2023-03-21T02:15:40;101035.13;;;9.98;62.02
64841;BME280;51307;52.162;7.560;2023-03-21T02:18:08;101033.28;;;9.98;62.16
64841;BME280;51307;52.162;7.560;2023-03-21T02:29:45;101017.28;;;9.70;62.91
64841;BME280;51307;52.162;7.560;2023-03-21T02:40:41;101019.81;;;9.90;62.71
64841;BME280;51307;52.162;7.560;2023-03-21T02:49:10;101013.09;;;9.86;62.97
64841;BME280;51307;52.162;7.560;2023-03-21T02:51:42;101008.75;;;9.85;63.30
64841;BME280;51307;52.162;7.560;2023-03-21T02:54:17;101011.94;;;9.70;63.60
64841;BME280;51307;52.162;7.560;2023-03-21T02:56:46;100995.03;;;9.98;62.84
64841;BME280;51307;52.162;7.560;2023-03-21T02:59:15;101008.69;;;9.49;64.17
64841;BME280;51307;52.162;7.560;2023-03-21T03:01:42;101004.56;;;9.82;63.43
64841;BME280;51307;52.162;7.560;2023-03-21T03:04:20;101011.28;;;9.86;63.66
64841;BME280;51307;52.162;7.560;2023-03-21T03:07:12;101002.16;;;9.61;64.17
64841;BME280;51307;52.162;7.560;2023-03-21T03:15:32;100994.88;;;9.99;63.28
64841;BME280;51307;52.162;7.560;2023-03-21T03:18:32;101001.66;;;9.93;63.40
64841;BME280;51307;52.162;7.560;2023-03-21T03:26:32;101002.22;;;9.97;63.37
64841;BME280;51307;52.162;7.560;2023-03-21T03:29:04;101011.78;;;10.00;63.23
64841;BME280;51307;52.162;7.560;2023-03-21T03:31:46;100992.91;;;10.01;63.32
64841;BME280;51307;52.162;7.560;2023-03-21T03:34:20;100995.78;;;9.90;63.79
64841;BME280;51307;52.162;7.560;2023-03-21T03:36:54;100988.22;;;9.85;64.01
64841;BME280;51307;52.162;7.560;2023-03-21T03:39:26;100984.50;;;9.96;63.62
64841;BME280;51307;52.162;7.560;2023-03-21T03:42:12;100986.19;;;9.97;63.73
64841;BME280;51307;52.162;7.560;2023-03-21T03:44:39;100984.19;;;9.81;64.24
64841;BME280;51307;52.162;7.560;2023-03-21T03:47:09;100990.09;;;9.75;64.57
64841;BME280;51307;52.162;7.560;2023-03-21T03:49:45;100988.22;;;9.85;64.19
64841;BME280;51307;52.162;7.560;2023-03-21T03:52:21;100984.75;;;9.75;64.49
64841;BME280;51307;52.162;7.560;2023-03-21T03:54:50;100985.72;;;9.84;64.23
64841;BME280;51307;52.162;7.560;2023-03-21T03:57:16;100985.72;;;9.84;64.36
64841;BME280;51307;52.162;7.560;2023-03-21T03:59:44;100980.38;;;9.84;64.21
64841;BME280;51307;52.162;7.560;2023-03-21T04:02:11;100973.56;;;9.89;63.99
64841;BME280;51307;52.162;7.560;2023-03-21T04:04:36;100974.34;;;10.00;63.64
64841;BME280;51307;52.162;7.560;2023-03-21T04:07:03;100975.78;;;9.94;63.65
64841;BME280;51307;52.162;7.560;2023-03-21T04:09:29;100973.72;;;9.88;63.94
64841;BME280;51307;52.162;7.560;2023-03-21T04:11:55;100968.97;;;9.82;63.95
64841;BME280;51307;52.162;7.560;2023-03-21T04:14:22;100965.16;;;9.84;64.01
64841;BME280;51307;52.162;7.560;2023-03-21T04:16:48;100969.44;;;9.95;63.82
64841;BME280;51307;52.162;7.560;2023-03-21T04:19:14;100967.38;;;9.89;63.82
64841;BME280;51307;52.162;7.560;2023-03-21T04:21:41;100961.72;;;9.92;63.80
64841;BME280;51307;52.162;7.560;2023-03-21T04:24:06;100964.31;;;10.02;63.63
64841;BME280;51307;52.162;7.560;2023-03-21T04:26:32;100965.38;;;9.91;63.58
64841;BME280;51307;52.162;7.560;2023-03-21T04:29:01;100958.59;;;9.97;63.47
64841;BME280;51307;52.162;7.560;2023-03-21T04:31:31;100960.50;;;10.04;63.21
64841;BME280;51307;52.162;7.560;2023-03-21T04:34:00;100958.91;;;9.93;63.50
64841;BME280;51307;52.162;7.560;2023-03-21T04:36:27;100953.78;;;10.00;63.29
64841;BME280;51307;52.162;7.560;2023-03-21T04:39:04;100954.78;;;9.99;63.18
64841;BME280;51307;52.162;7.560;2023-03-21T04:41:30;100950.41;;;9.98;63.09
64841;BME280;51307;52.162;7.560;2023-03-21T04:43:56;100952.25;;;9.98;62.86
64841;BME280;51307;52.162;7.560;2023-03-21T04:46:22;100949.03;;;9.94;63.44
64841;BME280;51307;52.162;7.560;2023-03-21T04:48:48;100942.88;;;9.93;63.04
64841;BME280;51307;52.162;7.560;2023-03-21T04:51:15;100935.69;;;9.94;63.18
64841;BME280;51307;52.162;7.560;2023-03-21T04:53:40;100938.06;;;9.97;63.06
64841;BME280;51307;52.162;7.560;2023-03-21T04:56:10;100940.81;;;10.05;62.96
64841;BME280;51307;52.162;7.560;2023-03-21T04:58:36;100937.75;;;10.00;63.16
64841;BME280;51307;52.162;7.560;2023-03-21T05:01:01;100940.19;;;9.75;63.68
64841;BME280;51307;52.162;7.560;2023-03-21T05:03:30;100932.03;;;9.95;63.08
64841;BME280;51307;52.162;7.560;2023-03-21T05:05:59;100932.25;;;10.02;63.08
64841;BME280;51307;52.162;7.560;2023-03-21T05:08:25;100941.56;;;9.98;63.09
64841;BME280;51307;52.162;7.560;2023-03-21T05:10:51;100930.72;;;9.99;63.01
64841;BME280;51307;52.162;7.560;2023-03-21T05:13:17;100939.44;;;10.01;63.19
64841;BME280;51307;52.162;7.560;2023-03-21T05:15:42;100942.28;;;10.00;63.06
64841;BME280;51307;52.162;7.560;2023-03-21T05:18:08;100941.88;;;10.13;62.69
64841;BME280;51307;52.162;7.560;2023-03-21T05:20:40;100939.94;;;10.05;62.68
64841;BME280;51307;52.162;7.560;2023-03-21T05:23:09;100931.25;;;10.03;63.11
64841;BME280;51307;52.162;7.560;2023-03-21T05:25:38;100931.50;;;10.09;62.58
64841;BME280;51307;52.162;7.560;2023-03-21T05:28:05;100940.34;;;9.92;62.99
64841;BME280;51307;52.162;7.560;2023-03-21T05:30:31;100939.38;;;9.93;63.10
64841;BME280;51307;52.162;7.560;2023-03-21T05:32:57;100943.09;;;10.00;62.98
64841;BME280;51307;52.162;7.560;2023-03-21T05:35:22;100932.41;;;10.00;62.97
64841;BME280;51307;52.162;7.560;2023-03-21T05:37:48;100939.50;;;9.91;63.05
64841;BME280;51307;52.162;7.560;2023-03-21T05:40:13;100928.34;;;10.14;62.63
64841;BME280;51307;52.162;7.560;2023-03-21T05:42:39;100931.09;;;10.04;63.17
64841;BME280;51307;52.162;7.560;2023-03-21T05:45:05;100935.16;;;10.08;62.77
64841;BME280;51307;52.162;7.560;2023-03-21T05:47:31;100934.31;;;10.08;62.78
64841;BME280;51307;52.162;7.560;2023-03-21T05:49:57;100928.34;;;10.14;62.87
64841;BME280;51307;52.162;7.560;2023-03-21T05:52:23;100935.91;;;10.19;62.71
64841;BME280;51307;52.162;7.560;2023-03-21T05:54:48;100941.19;;;10.10;62.74
64841;BME280;51307;52.162;7.560;2023-03-21T05:57:14;100938.59;;;10.19;62.56
64841;BME280;51307;52.162;7.560;2023-03-21T05:59:40;100933.25;;;10.19;62.69
64841;BME280;51307;52.162;7.560;2023-03-21T06:02:06;100935.06;;;10.18;62.72
64841;BME280;51307;52.162;7.560;2023-03-21T06:04:31;100938.06;;;9.97;63.26
64841;BME280;51307;52.162;7.560;2023-03-21T06:06:57;100941.03;;;10.12;62.85
64841;BME280;51307;52.162;7.560;2023-03-21T06:09:23;100935.53;;;10.14;62.81
64841;BME280;51307;52.162;7.560;2023-03-21T06:11:52;100936.44;;;10.04;63.15
64841;BME280;51307;52.162;7.560;2023-03-21T06:14:19;100946.16;;;10.05;62.93
64841;BME280;51307;52.162;7.560;2023-03-21T06:16:45;100947.53;;;10.09;62.88
64841;BME280;51307;52.162;7.560;2023-03-21T06:19:11;100946.38;;;9.94;63.04
64841;BME280;51307;52.162;7.560;2023-03-21T06:21:37;100938.66;;;10.09;63.06
64841;BME280;51307;52.162;7.560;2023-03-21T06:24:02;100946.31;;;10.04;63.36
64841;BME280;51307;52.162;7.560;2023-03-21T06:26:28;100945.38;;;9.95;63.57
64841;BME280;51307;52.162;7.560;2023-03-21T06:28:54;100942.16;;;9.91;63.59
64841;BME280;51307;52.162;7.560;2023-03-21T06:31:19;100954.38;;;9.76;64.26
64841;BME280;51307;52.162;7.560;2023-03-21T06:33:48;100947.75;;;9.80;64.34
64841;BME280;51307;52.162;7.560;2023-03-21T06:36:13;100948.97;;;9.86;64.40
64841;BME280;51307;52.162;7.560;2023-03-21T06:38:39;100957.13;;;9.66;65.03
64841;BME280;51307;52.162;7.560;2023-03-21T06:41:08;100950.88;;;9.75;64.69
64841;BME280;51307;52.162;7.560;2023-03-21T06:43:33;100947.97;;;9.69;65.37
64841;BME280;51307;52.162;7.560;2023-03-21T06:45:59;100956.34;;;9.56;65.75
64841;BME280;51307;52.162;7.560;2023-03-21T06:48:26;100951.16;;;9.72;65.30
64841;BME280;51307;52.162;7.560;2023-03-21T06:50:53;100956.16;;;9.39;66.21
64841;BME280;51307;52.162;7.560;2023-03-21T06:53:21;100947.44;;;9.65;65.91
64841;BME280;51307;52.162;7.560;2023-03-21T06:55:50;100951.16;;;9.72;65.43
64841;BME280;51307;52.162;7.560;2023-03-21T06:58:16;100959.56;;;9.59;65.89
64841;BME280;51307;52.162;7.560;2023-03-21T07:00:42;100956.53;;;9.90;65.45
64841;BME280;51307;52.162;7.560;2023-03-21T07:03:07;100948.53;;;9.90;65.42
64841;BME280;51307;52.162;7.560;2023-03-21T07:05:36;100951.41;;;9.61;66.61
64841;BME280;51307;52.162;7.560;2023-03-21T07:08:02;100945.91;;;9.81;66.11
64841;BME280;51307;52.162;7.560;2023-03-21T07:10:28;100954.69;;;9.91;65.65
64841;BME280;51307;52.162;7.560;2023-03-21T07:12:53;100950.28;;;10.00;65.57
64841;BME280;51307;52.162;7.560;2023-03-21T07:15:19;100951.03;;;9.92;65.71
64841;BME280;51307;52.162;7.560;2023-03-21T07:17:44;100954.09;;;9.97;65.66
64841;BME280;51307;52.162;7.560;2023-03-21T07:20:10;100957.22;;;9.92;65.90
64841;BME280;51307;52.162;7.560;2023-03-21T07:22:37;100949.34;;;9.91;66.12
64841;BME280;51307;52.162;7.560;2023-03-21T07:25:03;100961.09;;;9.98;65.97
64841;BME280;51307;52.162;7.560;2023-03-21T07:27:29;100955.53;;;9.91;66.01
64841;BME280;51307;52.162;7.560;2023-03-21T07:29:55;100954.94;;;9.80;66.26
64841;BME280;51307;52.162;7.560;2023-03-21T07:32:21;100960.28;;;9.98;66.05
64841;BME280;51307;52.162;7.560;2023-03-21T07:34:47;100960.81;;;10.01;65.91
64841;BME280;51307;52.162;7.560;2023-03-21T07:37:12;100961.41;;;9.95;66.10
64841;BME280;51307;52.162;7.560;2023-03-21T07:39:38;100961.25;;;9.97;66.06
64841;BME280;51307;52.162;7.560;2023-03-21T07:42:03;100960.44;;;9.96;66.13
64841;BME280;51307;52.162;7.560;2023-03-21T07:44:29;100958.81;;;10.03;65.93
64841;BME280;51307;52.162;7.560;2023-03-21T07:46:55;100956.91;;;9.96;66.04
64841;BME280;51307;52.162;7.560;2023-03-21T07:49:20;100958.66;;;9.87;66.25
64841;BME280;51307;52.162;7.560;2023-03-21T07:51:46;100956.22;;;9.93;66.23
64841;BME280;51307;52.162;7.560;2023-03-21T07:54:11;100956.75;;;9.79;67.11
64841;BME280;51307;52.162;7.560;2023-03-21T07:56:37;100956.84;;;10.05;66.29
64841;BME280;51307;52.162;7.560;2023-03-21T07:59:02;100956.69;;;10.07;66.08
64841;BME280;51307;52.162;7.560;2023-03-21T08:01:29;100952.84;;;9.91;66.74
64841;BME280;51307;52.162;7.560;2023-03-21T08:03:55;100955.09;;;9.96;66.60
64841;BME280;51307;52.162;7.560;2023-03-21T08:06:22;100957.44;;;9.99;66.49
64841;BME280;51307;52.162;7.560;2023-03-21T08:08:47;100956.16;;;10.03;66.37
64841;BME280;51307;52.162;7.560;2023-03-21T08:11:13;100962.19;;;10.05;66.07
64841;BME280;51307;52.162;7.560;2023-03-21T08:13:39;100957.91;;;9.95;66.65
64841;BME280;51307;52.162;7.560;2023-03-21T08:16:06;100966.16;;;10.01;66.56
64841;BME280;51307;52.162;7.560;2023-03-21T08:18:32;100964.25;;;10.12;66.40
64841;BME280;51307;52.162;7.560;2023-03-21T08:20:58;100960.97;;;10.00;66.57
64841;BME280;51307;52.162;7.560;2023-03-21T08:23:24;100963.41;;;10.11;66.36
64841;BME280;51307;52.162;7.560;2023-03-21T08:25:54;100952.34;;;10.06;66.59
64841;BME280;51307;52.162;7.560;2023-03-21T08:28:21;100956.53;;;10.08;67.12
64841;BME280;51307;52.162;7.560;2023-03-21T08:30:48;100959.66;;;10.22;66.61
64841;BME280;51307;52.162;7.560;2023-03-21T08:33:14;100944.44;;;10.22;66.66
64841;BME280;51307;52.162;7.560;2023-03-21T08:35:41;100946.50;;;10.29;66.42
64841;BME280;51307;52.162;7.560;2023-03-21T08:38:07;100947.28;;;10.21;66.70
64841;BME280;51307;52.162;7.560;2023-03-21T08:40:33;100947.91;;;10.15;66.85
64841;BME280;51307;52.162;7.560;2023-03-21T08:42:59;100938.75;;;10.17;66.70
64841;BME280;51307;52.162;7.560;2023-03-21T08:45:25;100949.94;;;10.21;66.58
64841;BME280;51307;52.162;7.560;2023-03-21T08:47:52;100951.56;;;10.14;67.12
64841;BME280;51307;52.162;7.560;2023-03-21T08:50:21;100935.28;;;10.25;67.09
64841;BME280;51307;52.162;7.560;2023-03-21T08:52:47;100937.66;;;10.28;66.87
64841;BME280;51307;52.162;7.560;2023-03-21T08:55:14;100938.72;;;10.35;66.65
64841;BME280;51307;52.162;7.560;2023-03-21T08:57:42;100943.22;;;10.35;66.70
64841;BME280;51307;52.162;7.560;2023-03-21T09:00:11;100944.66;;;10.29;66.80
64841;BME280;51307;52.162;7.560;2023-03-21T09:02:43;100937.50;;;10.30;66.63
64841;BME280;51307;52.162;7.560;2023-03-21T09:05:10;100935.50;;;10.32;66.79
64841;BME280;51307;52.162;7.560;2023-03-21T09:07:37;100935.34;;;10.33;66.69
64841;BME280;51307;52.162;7.560;2023-03-21T09:10:10;100939.19;;;10.31;66.77
64841;BME280;51307;52.162;7.560;2023-03-21T09:12:36;100931.00;;;10.32;66.33
64841;BME280;51307;52.162;7.560;2023-03-21T09:15:03;100932.81;;;10.32;66.39
64841;BME280;51307;52.162;7.560;2023-03-21T09:17:29;100935.44;;;10.41;66.60
64841;BME280;51307;52.162;7.560;2023-03-21T09:19:56;100929.00;;;10.34;66.66
64841;BME280;51307;52.162;7.560;2023-03-21T09:22:25;100936.41;;;10.40;66.51
64841;BME280;51307;52.162;7.560;2023-03-21T09:24:52;100931.22;;;10.39;66.84
64841;BME280;51307;52.162;7.560;2023-03-21T09:27:18;100925.03;;;10.38;66.61
64841;BME280;51307;52.162;7.560;2023-03-21T09:29:50;100930.06;;;10.41;66.65
64841;BME280;51307;52.162;7.560;2023-03-21T09:32:16;100925.34;;;10.35;66.78
64841;BME280;51307;52.162;7.560;2023-03-21T09:34:45;100927.69;;;10.38;66.77
64841;BME280;51307;52.162;7.560;2023-03-21T09:37:12;100924.19;;;10.38;66.79
64841;BME280;51307;52.162;7.560;2023-03-21T09:39:39;100930.16;;;10.50;66.86
64841;BME280;51307;52.162;7.560;2023-03-21T09:47:30;100916.25;;;10.46;67.05
64841;BME280;51307;52.162;7.560;2023-03-21T09:50:25;100925.06;;;10.02;68.17
64841;BME280;51307;52.162;7.560;2023-03-21T09:53:17;100928.75;;;10.01;68.79
64841;BME280;51307;52.162;7.560;2023-03-21T09:55:45;100928.47;;;10.49;67.41
64841;BME280;51307;52.162;7.560;2023-03-21T10:01:00;100921.50;;;10.56;66.56
64841;BME280;51307;52.162;7.560;2023-03-21T10:03:32;100928.38;;;10.58;66.42
64841;BME280;51307;52.162;7.560;2023-03-21T10:06:05;100923.72;;;10.60;66.68
64841;BME280;51307;52.162;7.560;2023-03-21T10:08:39;100926.38;;;10.42;67.14
64841;BME280;51307;52.162;7.560;2023-03-21T10:11:16;100927.00;;;10.54;66.89
64841;BME280;51307;52.162;7.560;2023-03-21T10:16:31;100915.53;;;10.44;66.65
64841;BME280;51307;52.162;7.560;2023-03-21T10:19:03;100919.31;;;10.51;66.87
64841;BME280;51307;52.162;7.560;2023-03-21T10:21:29;100919.13;;;10.53;67.08
64841;BME280;51307;52.162;7.560;2023-03-21T10:23:58;100914.88;;;10.68;66.75
64841;BME280;51307;52.162;7.560;2023-03-21T10:26:27;100919.50;;;10.58;67.02
64841;BME280;51307;52.162;7.560;2023-03-21T10:28:58;100912.09;;;10.52;66.96
64841;BME280;51307;52.162;7.560;2023-03-21T10:31:28;100915.38;;;10.64;66.82
64841;BME280;51307;52.162;7.560;2023-03-21T10:34:01;100915.19;;;10.65;66.73
64841;BME280;51307;52.162;7.560;2023-03-21T10:36:30;100912.53;;;10.65;66.69
64841;BME280;51307;52.162;7.560;2023-03-21T10:39:04;100919.19;;;10.61;66.88
64841;BME280;51307;52.162;7.560;2023-03-21T10:41:31;100910.78;;;10.56;67.08
64841;BME280;51307;52.162;7.560;2023-03-21T10:44:27;100904.50;;;10.65;66.95
64841;BME280;51307;52.162;7.560;2023-03-21T10:46:55;100907.34;;;10.64;66.93
64841;BME280;51307;52.162;7.560;2023-03-21T10:49:21;100902.97;;;10.63;67.19
64841;BME280;51307;52.162;7.560;2023-03-21T10:51:55;100894.78;;;10.64;67.08
64841;BME280;51307;52.162;7.560;2023-03-21T10:54:27;100907.16;;;10.65;66.96
64841;BME280;51307;52.162;7.560;2023-03-21T10:56:56;100894.50;;;10.67;67.17
64841;BME280;51307;52.162;7.560;2023-03-21T10:59:26;100893.16;;;10.71;67.17
64841;BME280;51307;52.162;7.560;2023-03-21T11:01:55;100899.88;;;10.75;67.36
64841;BME280;51307;52.162;7.560;2023-03-21T11:04:25;100896.31;;;10.67;67.60
64841;BME280;51307;52.162;7.560;2023-03-21T11:06:56;100891.91;;;10.84;67.31
64841;BME280;51307;52.162;7.560;2023-03-21T11:09:25;100885.91;;;10.90;67.00
64841;BME280;51307;52.162;7.560;2023-03-21T11:12:15;100885.59;;;10.93;67.11
64841;BME280;51307;52.162;7.560;2023-03-21T11:14:49;100886.91;;;10.89;66.46
64841;BME280;51307;52.162;7.560;2023-03-21T11:17:21;100877.16;;;10.80;66.55
64841;BME280;51307;52.162;7.560;2023-03-21T11:19:58;100870.16;;;10.87;66.39
64841;BME280;51307;52.162;7.560;2023-03-21T11:22:29;100871.50;;;10.91;66.45
64841;BME280;51307;52.162;7.560;2023-03-21T11:25:04;100871.06;;;11.04;66.63
64841;BME280;51307;52.162;7.560;2023-03-21T11:27:32;100857.97;;;10.92;66.10
64841;BME280;51307;52.162;7.560;2023-03-21T11:30:01;100859.84;;;11.00;65.88
64841;BME280;51307;52.162;7.560;2023-03-21T11:32:34;100858.47;;;10.96;65.52
64841;BME280;51307;52.162;7.560;2023-03-21T11:35:16;100853.81;;;10.98;65.74
64841;BME280;51307;52.162;7.560;2023-03-21T11:37:50;100858.13;;;10.91;65.90
64841;BME280;51307;52.162;7.560;2023-03-21T11:40:21;100852.50;;;11.02;65.91
64841;BME280;51307;52.162;7.560;2023-03-21T11:42:50;100860.88;;;11.07;66.14
64841;BME280;51307;52.162;7.560;2023-03-21T11:45:20;100856.16;;;11.01;65.95
64841;BME280;51307;52.162;7.560;2023-03-21T11:47:47;100843.78;;;11.00;66.31
64841;BME280;51307;52.162;7.560;2023-03-21T11:50:36;100848.44;;;10.90;66.07
64841;BME280;51307;52.162;7.560;2023-03-21T11:53:23;100838.56;;;10.99;65.88
64841;BME280;51307;52.162;7.560;2023-03-21T11:55:58;100833.91;;;11.01;66.11
64841;BME280;51307;52.162;7.560;2023-03-21T12:03:45;100824.00;;;10.93;66.25
64841;BME280;51307;52.162;7.560;2023-03-21T12:06:35;100822.16;;;10.93;66.21
64841;BME280;51307;52.162;7.560;2023-03-21T12:25:10;100798.09;;;11.02;66.20
64841;BME280;51307;52.162;7.560;2023-03-21T12:30:37;100789.44;;;11.16;66.11
64841;BME280;51307;52.162;7.560;2023-03-21T12:36:16;100789.94;;;11.20;66.44
64841;BME280;51307;52.162;7.560;2023-03-21T12:38:51;100780.91;;;11.21;66.42
64841;BME280;51307;52.162;7.560;2023-03-21T12:44:18;100770.88;;;11.31;66.65
64841;BME280;51307;52.162;7.560;2023-03-21T12:51:53;100760.66;;;11.43;65.44
64841;BME280;51307;52.162;7.560;2023-03-21T12:54:30;100763.53;;;11.41;65.37
64841;BME280;51307;52.162;7.560;2023-03-21T12:57:18;100760.31;;;11.38;65.70
64841;BME280;51307;52.162;7.560;2023-03-21T13:00:06;100766.84;;;11.35;65.77
64841;BME280;51307;52.162;7.560;2023-03-21T13:02:58;100748.28;;;11.34;65.40
64841;BME280;51307;52.162;7.560;2023-03-21T13:05:38;100750.78;;;11.35;65.26
64841;BME280;51307;52.162;7.560;2023-03-21T13:10:32;100747.97;;;11.45;65.43
64841;BME280;51307;52.162;7.560;2023-03-21T13:15:54;100733.53;;;11.46;64.71
64841;BME280;51307;52.162;7.560;2023-03-21T13:29:52;100720.63;;;11.58;64.13
64841;BME280;51307;52.162;7.560;2023-03-21T13:35:12;100722.34;;;11.42;64.37
64841;BME280;51307;52.162;7.560;2023-03-21T13:37:43;100710.75;;;11.58;63.55
64841;BME280;51307;52.162;7.560;2023-03-21T13:40:26;100717.63;;;11.61;63.60
64841;BME280;51307;52.162;7.560;2023-03-21T13:42:58;100702.56;;;11.60;63.11
64841;BME280;51307;52.162;7.560;2023-03-21T13:45:46;100707.56;;;11.63;63.03
64841;BME280;51307;52.162;7.560;2023-03-21T13:48:30;100696.19;;;11.61;62.09
64841;BME280;51307;52.162;7.560;2023-03-21T13:51:02;100697.69;;;11.64;61.92
64841;BME280;51307;52.162;7.560;2023-03-21T13:53:31;100693.97;;;11.73;61.51
64841;BME280;51307;52.162;7.560;2023-03-21T13:56:16;100692.31;;;11.72;62.01
64841;BME280;51307;52.162;7.560;2023-03-21T14:04:17;100680.94;;;11.70;61.34
64841;BME280;51307;52.162;7.560;2023-03-21T14:07:01;100682.47;;;11.64;62.20
64841;BME280;51307;52.162;7.560;2023-03-21T14:09:43;100680.09;;;11.77;61.47
64841;BME280;51307;52.162;7.560;2023-03-21T14:12:15;100674.72;;;11.77;61.60
64841;BME280;51307;52.162;7.560;2023-03-21T14:14:50;100684.13;;;11.73;61.87
64841;BME280;51307;52.162;7.560;2023-03-21T14:17:23;100670.34;;;11.93;61.72
64841;BME280;51307;52.162;7.560;2023-03-21T14:20:00;100674.72;;;11.77;61.98
64841;BME280;51307;52.162;7.560;2023-03-21T14:22:28;100663.84;;;11.87;61.75
64841;BME280;51307;52.162;7.560;2023-03-21T14:24:58;100663.28;;;12.00;61.73
64841;BME280;51307;52.162;7.560;2023-03-21T14:27:32;100656.59;;;11.96;62.13
64841;BME280;51307;52.162;7.560;2023-03-21T14:30:00;100653.06;;;12.04;61.35
64841;BME280;51307;52.162;7.560;2023-03-21T14:32:28;100647.66;;;12.12;61.40
64841;BME280;51307;52.162;7.560;2023-03-21T14:34:57;100636.13;;;12.03;61.25
64841;BME280;51307;52.162;7.560;2023-03-21T14:39:59;100629.78;;;12.04;61.30
64841;BME280;51307;52.162;7.560;2023-03-21T14:42:26;100639.56;;;12.20;61.25
64841;BME280;51307;52.162;7.560;2023-03-21T14:44:51;100638.06;;;12.18;60.71
64841;BME280;51307;52.162;7.560;2023-03-21T14:47:20;100639.28;;;12.15;60.84
64841;BME280;51307;52.162;7.560;2023-03-21T14:49:47;100647.28;;;12.23;60.71
64841;BME280;51307;52.162;7.560;2023-03-21T14:52:20;100638.06;;;12.18;60.35
64841;BME280;51307;52.162;7.560;2023-03-21T14:54:47;100639.09;;;12.17;60.59
64841;BME280;51307;52.162;7.560;2023-03-21T14:57:20;100635.00;;;12.29;61.06
64841;BME280;51307;52.162;7.560;2023-03-21T14:59:50;100635.38;;;12.18;60.05
64841;BME280;51307;52.162;7.560;2023-03-21T15:02:29;100633.69;;;12.25;59.92